EPKKEPPO

Guest
Details From EPKK - BALICE
To EPPO - LAWICA
Flight Number -
Tags decoded
Created
Modified
Stats Distance 283 nm / 525 km
Max Altitude 0 ft / 0 m
Waypoints 5
Social Downloads 0
Likes 0
Share VATSIM

Download

Looking for another format? Having issues loading an existing format? Contact us
Advertisement - Login to hide

Notes

Requested: EPKK POBOK M985 KOTEK L981 NILPU EPPO Unmatched points: M985 L981

Route

EPKK POBOK KOTEK NILPU EPPO

ID Type Via Altitude Latitude Longitude Leg Dist Tot Dist Heading (true) Name
O EPKK APT - 0 ft / 0 m 50.07782˚ 19.78550˚ - 0 nm - BALICE
POBOK FIX - 0 ft / 0 m 50.58306˚ 20.21889˚ 34 nm 34 nm 29° / 29° -
KOTEK FIX - 0 ft / 0 m 52.06750˚ 20.61694˚ 90 nm 124 nm 9° / 10° -
NILPU FIX - 0 ft / 0 m 51.95278˚ 17.17500˚ 127 nm 252 nm 268° / 266° -
O EPPO APT - 0 ft / 0 m 52.42157˚ 16.82355˚ 30 nm 283 nm 335° / 335° LAWICA

Altitude Profile

Advertisement - Login to hide

Weather


0- 5 10 15 20 25 30 35+ Temperature / ° C

Clouds and Precipitation
Forecast for 2017-12-16 06:00 UTC. Updated 31 minutes ago

Ground ~20,000 ft ~40,000 ft Winds

EPKK

Details ICAO EPKK (KRK)
Name BALICE
Region Poland
Timezone Europe/Warsaw (UTC+1.0)
Stats Elevation 791 ft / 241 m (AMSL)
Location 50.077821° 19.785503°
Runways 1
Magnetic Variation 5.202° E

METAR

EPKK 160130Z VRB01KT 6000 NSC M01/M02 Q1001

Decode

TAF

TAF EPKK 152330Z 1600/1624 VRB02KT 9999 SCT040 TEMPO 1600/1607 3000 BR BECMG 1608/1610 26010KT BKN014 TEMPO 1610/1624 4000 -SN BR BKN009 BECMG 1620/1622 VRB02KT

Decode

Departure Runways

ID Width Length Bearing (true) Bearing (mag) Surface Threshold Offset Overrun Length
07 197 ft / 60 m 8,343 ft / 2,543 m 77.75° 72.55° Concrete 0 ft / 0 m 0 ft / 0 m
25 197 ft / 60 m 8,343 ft / 2,543 m 257.77° 252.57° Concrete 784 ft / 239 m 0 ft / 0 m

EPPO

Details ICAO EPPO (POZ)
Name LAWICA
Region Poland
Timezone Europe/Warsaw (UTC+1.0)
Stats Elevation 308 ft / 94 m (AMSL)
Location 52.421566° 16.823549°
Runways 1
Magnetic Variation 4.736° E

METAR

EPPO 160130Z 29008KT 5000 BR OVC003 01/01 Q1001 R10/29//95

Decode

TAF

TAF EPPO 152330Z 1600/1624 23005KT 5000 BR BKN006 TEMPO 1600/1609 2000 BR BKN002 TEMPO 1609/1620 SCT007 BKN018 TEMPO 1620/1624 2000 -SN -SNRA BR BKN004

Decode

Destination Runways

ID Width Length Bearing (true) Bearing (mag) Surface Threshold Offset Overrun Length
11 164 ft / 50 m 8,153 ft / 2,485 m 107.57° 102.83° Asphalt 0 ft / 0 m 0 ft / 0 m
29 164 ft / 50 m 8,153 ft / 2,485 m 287.59° 282.85° Asphalt 0 ft / 0 m 0 ft / 0 m

Approach Navaids

Runway Type Ident Frequency Range Bearing (true) Bearing (mag) Slope Elevation
29 Localiser POZ 110.30 MHz 18 nm / 33 km 287.57° 282.83° - 308 ft / 94 m (AMSL)
29 Glidescope POZ 110.30 MHz 10 nm / 19 km 287.58° 282.84° 3.00° 308 ft / 94 m (AMSL)
29 DME POZ 110.30 MHz 18 nm / 33 km - - - 331 ft / 101 m (AMSL)

Popular Alternatives